sensor_id;sensor_type;location;lat;lon;timestamp;P1;durP1;ratioP1;P2;durP2;ratioP2
39266;SDS011;24967;51.154;13.812;2022-10-16T00:00:45;10.30;;;8.93;;
39266;SDS011;24967;51.154;13.812;2022-10-16T00:03:11;10.63;;;9.52;;
39266;SDS011;24967;51.154;13.812;2022-10-16T00:05:38;10.15;;;8.98;;
39266;SDS011;24967;51.154;13.812;2022-10-16T00:08:06;10.90;;;9.20;;
39266;SDS011;24967;51.154;13.812;2022-10-16T00:10:35;10.45;;;9.45;;
39266;SDS011;24967;51.154;13.812;2022-10-16T00:13:02;10.45;;;9.27;;
39266;SDS011;24967;51.154;13.812;2022-10-16T00:15:30;11.57;;;9.35;;
39266;SDS011;24967;51.154;13.812;2022-10-16T00:17:58;9.95;;;8.88;;
39266;SDS011;24967;51.154;13.812;2022-10-16T00:20:25;10.55;;;9.10;;
39266;SDS011;24967;51.154;13.812;2022-10-16T00:22:52;10.65;;;8.95;;
39266;SDS011;24967;51.154;13.812;2022-10-16T00:25:18;9.93;;;8.90;;
39266;SDS011;24967;51.154;13.812;2022-10-16T00:27:46;9.70;;;8.80;;
39266;SDS011;24967;51.154;13.812;2022-10-16T00:30:13;10.30;;;9.32;;
39266;SDS011;24967;51.154;13.812;2022-10-16T00:32:40;10.23;;;9.10;;
39266;SDS011;24967;51.154;13.812;2022-10-16T00:35:06;11.52;;;8.88;;
39266;SDS011;24967;51.154;13.812;2022-10-16T00:37:33;10.73;;;9.57;;
39266;SDS011;24967;51.154;13.812;2022-10-16T00:40:00;12.85;;;9.88;;
39266;SDS011;24967;51.154;13.812;2022-10-16T00:42:26;11.57;;;9.52;;
39266;SDS011;24967;51.154;13.812;2022-10-16T00:44:55;10.52;;;9.43;;
39266;SDS011;24967;51.154;13.812;2022-10-16T00:47:24;12.10;;;10.13;;
39266;SDS011;24967;51.154;13.812;2022-10-16T00:49:55;11.02;;;9.73;;
39266;SDS011;24967;51.154;13.812;2022-10-16T00:52:27;10.43;;;9.43;;
39266;SDS011;24967;51.154;13.812;2022-10-16T00:54:53;11.25;;;10.05;;
39266;SDS011;24967;51.154;13.812;2022-10-16T00:57:21;11.18;;;10.07;;
39266;SDS011;24967;51.154;13.812;2022-10-16T00:59:48;11.07;;;9.57;;
39266;SDS011;24967;51.154;13.812;2022-10-16T01:02:16;11.50;;;9.82;;
39266;SDS011;24967;51.154;13.812;2022-10-16T01:04:44;12.40;;;11.05;;
39266;SDS011;24967;51.154;13.812;2022-10-16T01:07:14;13.05;;;10.05;;
39266;SDS011;24967;51.154;13.812;2022-10-16T01:09:51;11.73;;;9.85;;
39266;SDS011;24967;51.154;13.812;2022-10-16T01:12:26;10.65;;;9.65;;
39266;SDS011;24967;51.154;13.812;2022-10-16T01:15:02;10.45;;;9.40;;
39266;SDS011;24967;51.154;13.812;2022-10-16T01:17:37;11.25;;;9.35;;
39266;SDS011;24967;51.154;13.812;2022-10-16T01:20:10;10.48;;;9.48;;
39266;SDS011;24967;51.154;13.812;2022-10-16T01:22:48;11.43;;;9.80;;
39266;SDS011;24967;51.154;13.812;2022-10-16T01:25:28;11.40;;;10.20;;
39266;SDS011;24967;51.154;13.812;2022-10-16T01:28:04;11.93;;;10.00;;
39266;SDS011;24967;51.154;13.812;2022-10-16T01:30:34;11.38;;;10.20;;
39266;SDS011;24967;51.154;13.812;2022-10-16T01:33:05;11.05;;;9.95;;
39266;SDS011;24967;51.154;13.812;2022-10-16T01:35:36;11.52;;;10.35;;
39266;SDS011;24967;51.154;13.812;2022-10-16T01:38:08;13.00;;;10.07;;
39266;SDS011;24967;51.154;13.812;2022-10-16T01:40:39;11.02;;;9.93;;
39266;SDS011;24967;51.154;13.812;2022-10-16T01:43:11;11.23;;;10.02;;
39266;SDS011;24967;51.154;13.812;2022-10-16T01:45:40;10.30;;;9.38;;
39266;SDS011;24967;51.154;13.812;2022-10-16T01:48:10;10.35;;;9.35;;
39266;SDS011;24967;51.154;13.812;2022-10-16T01:50:40;12.02;;;10.20;;
39266;SDS011;24967;51.154;13.812;2022-10-16T01:53:09;11.15;;;9.35;;
39266;SDS011;24967;51.154;13.812;2022-10-16T01:55:40;10.05;;;9.05;;
39266;SDS011;24967;51.154;13.812;2022-10-16T01:58:12;11.77;;;9.05;;
39266;SDS011;24967;51.154;13.812;2022-10-16T02:00:40;8.02;;;7.43;;
39266;SDS011;24967;51.154;13.812;2022-10-16T02:03:09;8.45;;;7.75;;
39266;SDS011;24967;51.154;13.812;2022-10-16T02:05:39;7.13;;;6.63;;
39266;SDS011;24967;51.154;13.812;2022-10-16T02:08:09;6.30;;;5.80;;
39266;SDS011;24967;51.154;13.812;2022-10-16T02:10:36;4.50;;;4.20;;
39266;SDS011;24967;51.154;13.812;2022-10-16T02:13:05;7.10;;;3.78;;
39266;SDS011;24967;51.154;13.812;2022-10-16T02:15:36;4.15;;;3.85;;
39266;SDS011;24967;51.154;13.812;2022-10-16T02:18:03;4.80;;;4.40;;
39266;SDS011;24967;51.154;13.812;2022-10-16T02:20:32;4.18;;;3.88;;
39266;SDS011;24967;51.154;13.812;2022-10-16T02:23:02;3.95;;;3.75;;
39266;SDS011;24967;51.154;13.812;2022-10-16T02:25:30;4.82;;;3.55;;
39266;SDS011;24967;51.154;13.812;2022-10-16T02:28:01;3.53;;;3.30;;
39266;SDS011;24967;51.154;13.812;2022-10-16T02:30:33;3.55;;;3.25;;
39266;SDS011;24967;51.154;13.812;2022-10-16T02:33:05;3.80;;;3.50;;
39266;SDS011;24967;51.154;13.812;2022-10-16T02:35:34;3.50;;;3.30;;
39266;SDS011;24967;51.154;13.812;2022-10-16T02:38:02;4.15;;;3.95;;
39266;SDS011;24967;51.154;13.812;2022-10-16T02:40:29;3.55;;;3.35;;
39266;SDS011;24967;51.154;13.812;2022-10-16T02:42:56;5.28;;;3.83;;
39266;SDS011;24967;51.154;13.812;2022-10-16T02:45:23;4.20;;;3.80;;
39266;SDS011;24967;51.154;13.812;2022-10-16T02:47:50;4.07;;;3.80;;
39266;SDS011;24967;51.154;13.812;2022-10-16T02:50:18;4.57;;;4.18;;
39266;SDS011;24967;51.154;13.812;2022-10-16T02:52:45;4.15;;;3.80;;
39266;SDS011;24967;51.154;13.812;2022-10-16T02:55:11;4.45;;;4.15;;
39266;SDS011;24967;51.154;13.812;2022-10-16T02:57:38;4.57;;;4.28;;
39266;SDS011;24967;51.154;13.812;2022-10-16T03:00:05;5.78;;;5.28;;
39266;SDS011;24967;51.154;13.812;2022-10-16T03:02:32;6.53;;;5.93;;
39266;SDS011;24967;51.154;13.812;2022-10-16T03:04:59;7.20;;;6.60;;
39266;SDS011;24967;51.154;13.812;2022-10-16T03:07:27;6.60;;;6.00;;
39266;SDS011;24967;51.154;13.812;2022-10-16T03:09:54;7.10;;;6.50;;
39266;SDS011;24967;51.154;13.812;2022-10-16T03:12:20;7.10;;;6.30;;
39266;SDS011;24967;51.154;13.812;2022-10-16T03:14:47;7.63;;;6.88;;
39266;SDS011;24967;51.154;13.812;2022-10-16T03:17:14;7.80;;;7.20;;
39266;SDS011;24967;51.154;13.812;2022-10-16T03:19:41;8.88;;;8.07;;
39266;SDS011;24967;51.154;13.812;2022-10-16T03:22:08;8.65;;;7.78;;
39266;SDS011;24967;51.154;13.812;2022-10-16T03:24:36;9.10;;;8.20;;
39266;SDS011;24967;51.154;13.812;2022-10-16T03:27:03;9.07;;;8.18;;
39266;SDS011;24967;51.154;13.812;2022-10-16T03:29:29;9.23;;;8.35;;
39266;SDS011;24967;51.154;13.812;2022-10-16T03:31:57;9.07;;;8.18;;
39266;SDS011;24967;51.154;13.812;2022-10-16T03:34:23;8.50;;;7.82;;
39266;SDS011;24967;51.154;13.812;2022-10-16T03:36:50;9.45;;;8.60;;
39266;SDS011;24967;51.154;13.812;2022-10-16T03:39:17;8.70;;;7.90;;
39266;SDS011;24967;51.154;13.812;2022-10-16T03:41:46;8.23;;;7.53;;
39266;SDS011;24967;51.154;13.812;2022-10-16T03:44:13;7.82;;;7.13;;
39266;SDS011;24967;51.154;13.812;2022-10-16T03:46:40;8.30;;;7.50;;
39266;SDS011;24967;51.154;13.812;2022-10-16T03:49:07;7.63;;;6.95;;
39266;SDS011;24967;51.154;13.812;2022-10-16T03:51:34;7.75;;;7.05;;
39266;SDS011;24967;51.154;13.812;2022-10-16T03:54:00;6.90;;;6.30;;
39266;SDS011;24967;51.154;13.812;2022-10-16T03:56:27;8.98;;;6.80;;
39266;SDS011;24967;51.154;13.812;2022-10-16T03:58:55;6.68;;;6.03;;
39266;SDS011;24967;51.154;13.812;2022-10-16T04:01:21;6.63;;;6.13;;
39266;SDS011;24967;51.154;13.812;2022-10-16T04:03:48;6.50;;;5.80;;
39266;SDS011;24967;51.154;13.812;2022-10-16T04:06:14;6.03;;;5.63;;
39266;SDS011;24967;51.154;13.812;2022-10-16T04:08:42;6.30;;;5.80;;
39266;SDS011;24967;51.154;13.812;2022-10-16T04:11:09;6.35;;;5.78;;
39266;SDS011;24967;51.154;13.812;2022-10-16T04:13:35;7.57;;;5.65;;
39266;SDS011;24967;51.154;13.812;2022-10-16T04:16:03;6.43;;;5.93;;
39266;SDS011;24967;51.154;13.812;2022-10-16T04:18:30;6.97;;;6.43;;
39266;SDS011;24967;51.154;13.812;2022-10-16T04:21:01;7.22;;;6.57;;
39266;SDS011;24967;51.154;13.812;2022-10-16T04:23:28;6.70;;;6.20;;
39266;SDS011;24967;51.154;13.812;2022-10-16T04:25:55;7.30;;;6.70;;
39266;SDS011;24967;51.154;13.812;2022-10-16T04:28:22;7.18;;;6.68;;
39266;SDS011;24967;51.154;13.812;2022-10-16T04:30:48;6.78;;;6.25;;
39266;SDS011;24967;51.154;13.812;2022-10-16T04:33:16;8.10;;;7.30;;
39266;SDS011;24967;51.154;13.812;2022-10-16T04:35:43;6.88;;;6.28;;
39266;SDS011;24967;51.154;13.812;2022-10-16T04:38:10;7.40;;;6.82;;
39266;SDS011;24967;51.154;13.812;2022-10-16T04:40:36;7.22;;;6.63;;
39266;SDS011;24967;51.154;13.812;2022-10-16T04:43:03;7.65;;;7.03;;
39266;SDS011;24967;51.154;13.812;2022-10-16T04:45:30;7.25;;;6.75;;
39266;SDS011;24967;51.154;13.812;2022-10-16T04:47:57;7.00;;;6.13;;
39266;SDS011;24967;51.154;13.812;2022-10-16T04:50:25;7.05;;;6.45;;
39266;SDS011;24967;51.154;13.812;2022-10-16T04:52:52;6.65;;;6.15;;
39266;SDS011;24967;51.154;13.812;2022-10-16T04:55:19;6.78;;;6.28;;
39266;SDS011;24967;51.154;13.812;2022-10-16T04:57:45;6.20;;;5.78;;
39266;SDS011;24967;51.154;13.812;2022-10-16T05:00:12;6.90;;;6.40;;
39266;SDS011;24967;51.154;13.812;2022-10-16T05:02:39;6.47;;;6.07;;
39266;SDS011;24967;51.154;13.812;2022-10-16T05:05:06;6.50;;;6.00;;
39266;SDS011;24967;51.154;13.812;2022-10-16T05:07:34;5.93;;;5.50;;
39266;SDS011;24967;51.154;13.812;2022-10-16T05:10:01;6.80;;;6.15;;
39266;SDS011;24967;51.154;13.812;2022-10-16T05:12:27;7.13;;;6.60;;
39266;SDS011;24967;51.154;13.812;2022-10-16T05:14:54;7.15;;;6.55;;
39266;SDS011;24967;51.154;13.812;2022-10-16T05:17:23;7.45;;;6.85;;
39266;SDS011;24967;51.154;13.812;2022-10-16T05:19:50;7.18;;;6.60;;
39266;SDS011;24967;51.154;13.812;2022-10-16T05:22:16;7.55;;;6.90;;
39266;SDS011;24967;51.154;13.812;2022-10-16T05:24:44;7.70;;;6.93;;
39266;SDS011;24967;51.154;13.812;2022-10-16T05:27:11;8.23;;;7.53;;
39266;SDS011;24967;51.154;13.812;2022-10-16T05:29:43;8.57;;;7.80;;
39266;SDS011;24967;51.154;13.812;2022-10-16T05:32:10;7.95;;;7.13;;
39266;SDS011;24967;51.154;13.812;2022-10-16T05:34:37;8.60;;;7.90;;
39266;SDS011;24967;51.154;13.812;2022-10-16T05:37:04;8.30;;;7.57;;
39266;SDS011;24967;51.154;13.812;2022-10-16T05:39:30;8.65;;;7.85;;
39266;SDS011;24967;51.154;13.812;2022-10-16T05:41:58;8.57;;;7.80;;
39266;SDS011;24967;51.154;13.812;2022-10-16T05:44:25;7.82;;;7.20;;
39266;SDS011;24967;51.154;13.812;2022-10-16T05:46:51;7.80;;;7.20;;
39266;SDS011;24967;51.154;13.812;2022-10-16T05:49:18;8.23;;;7.43;;
39266;SDS011;24967;51.154;13.812;2022-10-16T05:51:45;8.35;;;7.65;;
39266;SDS011;24967;51.154;13.812;2022-10-16T05:54:11;8.35;;;7.68;;
39266;SDS011;24967;51.154;13.812;2022-10-16T05:56:38;8.38;;;7.70;;
39266;SDS011;24967;51.154;13.812;2022-10-16T05:59:06;8.50;;;7.80;;
39266;SDS011;24967;51.154;13.812;2022-10-16T06:01:33;7.63;;;7.03;;
39266;SDS011;24967;51.154;13.812;2022-10-16T06:04:00;8.38;;;7.68;;
39266;SDS011;24967;51.154;13.812;2022-10-16T06:06:27;8.32;;;7.53;;
39266;SDS011;24967;51.154;13.812;2022-10-16T06:08:55;8.60;;;7.90;;
39266;SDS011;24967;51.154;13.812;2022-10-16T06:11:23;8.77;;;7.97;;
39266;SDS011;24967;51.154;13.812;2022-10-16T06:13:52;10.80;;;9.80;;
39266;SDS011;24967;51.154;13.812;2022-10-16T06:16:23;10.23;;;9.32;;
39266;SDS011;24967;51.154;13.812;2022-10-16T06:18:50;11.27;;;10.15;;
39266;SDS011;24967;51.154;13.812;2022-10-16T06:21:18;11.80;;;10.75;;
39266;SDS011;24967;51.154;13.812;2022-10-16T06:23:46;10.77;;;9.88;;
39266;SDS011;24967;51.154;13.812;2022-10-16T06:26:14;11.77;;;10.63;;
39266;SDS011;24967;51.154;13.812;2022-10-16T06:28:42;11.77;;;10.68;;
39266;SDS011;24967;51.154;13.812;2022-10-16T06:31:10;12.20;;;11.02;;
39266;SDS011;24967;51.154;13.812;2022-10-16T06:33:39;12.15;;;10.85;;
39266;SDS011;24967;51.154;13.812;2022-10-16T06:36:07;12.93;;;11.73;;
39266;SDS011;24967;51.154;13.812;2022-10-16T06:38:35;12.32;;;11.23;;
39266;SDS011;24967;51.154;13.812;2022-10-16T06:41:02;12.30;;;11.18;;
39266;SDS011;24967;51.154;13.812;2022-10-16T06:43:29;12.30;;;11.20;;
39266;SDS011;24967;51.154;13.812;2022-10-16T06:45:58;11.93;;;10.80;;
39266;SDS011;24967;51.154;13.812;2022-10-16T06:48:26;12.27;;;11.18;;
39266;SDS011;24967;51.154;13.812;2022-10-16T06:50:58;12.05;;;11.05;;
39266;SDS011;24967;51.154;13.812;2022-10-16T06:53:27;12.65;;;11.55;;
39266;SDS011;24967;51.154;13.812;2022-10-16T06:55:55;12.20;;;10.82;;
39266;SDS011;24967;51.154;13.812;2022-10-16T06:58:22;12.10;;;10.80;;
39266;SDS011;24967;51.154;13.812;2022-10-16T07:00:54;10.57;;;9.70;;
39266;SDS011;24967;51.154;13.812;2022-10-16T07:03:22;10.45;;;9.30;;
39266;SDS011;24967;51.154;13.812;2022-10-16T07:05:49;9.65;;;8.85;;
39266;SDS011;24967;51.154;13.812;2022-10-16T07:08:17;9.02;;;8.27;;
39266;SDS011;24967;51.154;13.812;2022-10-16T07:10:43;9.02;;;8.32;;
39266;SDS011;24967;51.154;13.812;2022-10-16T07:13:10;9.57;;;8.68;;
39266;SDS011;24967;51.154;13.812;2022-10-16T07:15:38;7.93;;;7.32;;
39266;SDS011;24967;51.154;13.812;2022-10-16T07:18:04;10.85;;;7.60;;
39266;SDS011;24967;51.154;13.812;2022-10-16T07:20:31;7.72;;;7.15;;
39266;SDS011;24967;51.154;13.812;2022-10-16T07:22:58;7.95;;;7.25;;
39266;SDS011;24967;51.154;13.812;2022-10-16T07:25:26;7.10;;;6.47;;
39266;SDS011;24967;51.154;13.812;2022-10-16T07:27:53;7.97;;;6.75;;
39266;SDS011;24967;51.154;13.812;2022-10-16T07:30:21;7.20;;;6.38;;
39266;SDS011;24967;51.154;13.812;2022-10-16T07:32:48;7.03;;;6.43;;
39266;SDS011;24967;51.154;13.812;2022-10-16T07:35:15;6.80;;;6.30;;
39266;SDS011;24967;51.154;13.812;2022-10-16T07:37:43;7.10;;;6.57;;
39266;SDS011;24967;51.154;13.812;2022-10-16T07:40:10;6.20;;;5.70;;
39266;SDS011;24967;51.154;13.812;2022-10-16T07:42:39;6.32;;;5.82;;
39266;SDS011;24967;51.154;13.812;2022-10-16T07:45:06;5.65;;;5.25;;
39266;SDS011;24967;51.154;13.812;2022-10-16T07:47:33;6.28;;;4.75;;
39266;SDS011;24967;51.154;13.812;2022-10-16T07:49:59;5.18;;;4.90;;
39266;SDS011;24967;51.154;13.812;2022-10-16T07:52:26;6.93;;;4.90;;
39266;SDS011;24967;51.154;13.812;2022-10-16T07:54:53;5.97;;;5.57;;
39266;SDS011;24967;51.154;13.812;2022-10-16T07:57:19;4.53;;;4.13;;
39266;SDS011;24967;51.154;13.812;2022-10-16T07:59:47;5.03;;;4.60;;
39266;SDS011;24967;51.154;13.812;2022-10-16T08:02:14;4.55;;;4.25;;
39266;SDS011;24967;51.154;13.812;2022-10-16T08:04:41;5.05;;;4.70;;
39266;SDS011;24967;51.154;13.812;2022-10-16T08:07:08;4.00;;;3.80;;
39266;SDS011;24967;51.154;13.812;2022-10-16T08:09:34;3.72;;;3.50;;
39266;SDS011;24967;51.154;13.812;2022-10-16T08:12:01;3.90;;;3.70;;
39266;SDS011;24967;51.154;13.812;2022-10-16T08:14:29;3.35;;;3.22;;
39266;SDS011;24967;51.154;13.812;2022-10-16T08:16:57;3.42;;;2.88;;
39266;SDS011;24967;51.154;13.812;2022-10-16T08:19:24;3.08;;;2.72;;
39266;SDS011;24967;51.154;13.812;2022-10-16T08:21:50;1.83;;;1.80;;
39266;SDS011;24967;51.154;13.812;2022-10-16T08:24:17;2.20;;;2.10;;
39266;SDS011;24967;51.154;13.812;2022-10-16T08:26:43;2.28;;;2.17;;
39266;SDS011;24967;51.154;13.812;2022-10-16T08:29:10;2.00;;;1.83;;
39266;SDS011;24967;51.154;13.812;2022-10-16T08:31:37;1.80;;;1.70;;
39266;SDS011;24967;51.154;13.812;2022-10-16T08:34:05;1.88;;;1.80;;
39266;SDS011;24967;51.154;13.812;2022-10-16T08:36:31;1.50;;;1.50;;
39266;SDS011;24967;51.154;13.812;2022-10-16T08:38:58;1.60;;;1.50;;
39266;SDS011;24967;51.154;13.812;2022-10-16T08:41:42;1.70;;;1.60;;
39266;SDS011;24967;51.154;13.812;2022-10-16T08:44:30;1.70;;;1.55;;
39266;SDS011;24967;51.154;13.812;2022-10-16T08:47:08;1.77;;;1.40;;
39266;SDS011;24967;51.154;13.812;2022-10-16T08:49:50;1.77;;;1.67;;
39266;SDS011;24967;51.154;13.812;2022-10-16T08:52:23;2.00;;;1.88;;
39266;SDS011;24967;51.154;13.812;2022-10-16T08:54:54;6.10;;;5.50;;
39266;SDS011;24967;51.154;13.812;2022-10-16T08:57:23;4.95;;;3.85;;
39266;SDS011;24967;51.154;13.812;2022-10-16T08:59:51;6.90;;;6.22;;
39266;SDS011;24967;51.154;13.812;2022-10-16T09:02:23;3.60;;;3.38;;
39266;SDS011;24967;51.154;13.812;2022-10-16T09:04:56;7.35;;;6.55;;
39266;SDS011;24967;51.154;13.812;2022-10-16T09:07:30;44.42;;;25.88;;
39266;SDS011;24967;51.154;13.812;2022-10-16T09:10:11;41.88;;;24.20;;
39266;SDS011;24967;51.154;13.812;2022-10-16T09:15:21;40.42;;;18.40;;
39266;SDS011;24967;51.154;13.812;2022-10-16T09:17:56;7.72;;;4.82;;
39266;SDS011;24967;51.154;13.812;2022-10-16T09:20:34;100.90;;;55.83;;
39266;SDS011;24967;51.154;13.812;2022-10-16T09:23:14;9.88;;;8.00;;
39266;SDS011;24967;51.154;13.812;2022-10-16T09:25:44;5.75;;;3.70;;
39266;SDS011;24967;51.154;13.812;2022-10-16T09:28:13;1.30;;;1.30;;
39266;SDS011;24967;51.154;13.812;2022-10-16T09:30:41;1.45;;;1.40;;
39266;SDS011;24967;51.154;13.812;2022-10-16T09:33:09;1.73;;;1.63;;
39266;SDS011;24967;51.154;13.812;2022-10-16T09:35:39;1.60;;;1.10;;
39266;SDS011;24967;51.154;13.812;2022-10-16T09:38:08;2.10;;;2.00;;
39266;SDS011;24967;51.154;13.812;2022-10-16T09:40:46;1.40;;;1.40;;
39266;SDS011;24967;51.154;13.812;2022-10-16T09:43:16;1.55;;;1.35;;
39266;SDS011;24967;51.154;13.812;2022-10-16T09:45:57;1.50;;;1.38;;
39266;SDS011;24967;51.154;13.812;2022-10-16T09:48:26;1.02;;;1.00;;
39266;SDS011;24967;51.154;13.812;2022-10-16T09:51:00;1.80;;;1.15;;
39266;SDS011;24967;51.154;13.812;2022-10-16T09:53:37;1.70;;;1.70;;
39266;SDS011;24967;51.154;13.812;2022-10-16T09:56:05;1.55;;;1.48;;
39266;SDS011;24967;51.154;13.812;2022-10-16T09:58:32;2.00;;;1.90;;
39266;SDS011;24967;51.154;13.812;2022-10-16T10:00:59;2.50;;;2.40;;
39266;SDS011;24967;51.154;13.812;2022-10-16T10:03:36;2.60;;;2.40;;
39266;SDS011;24967;51.154;13.812;2022-10-16T10:06:17;2.67;;;2.47;;
39266;SDS011;24967;51.154;13.812;2022-10-16T10:08:57;2.92;;;2.58;;
39266;SDS011;24967;51.154;13.812;2022-10-16T10:11:43;2.50;;;2.40;;
39266;SDS011;24967;51.154;13.812;2022-10-16T10:14:20;2.40;;;2.30;;
39266;SDS011;24967;51.154;13.812;2022-10-16T10:17:01;2.40;;;2.30;;
39266;SDS011;24967;51.154;13.812;2022-10-16T10:19:37;2.00;;;1.48;;
39266;SDS011;24967;51.154;13.812;2022-10-16T10:22:15;1.30;;;1.30;;
39266;SDS011;24967;51.154;13.812;2022-10-16T10:24:43;1.10;;;1.10;;
39266;SDS011;24967;51.154;13.812;2022-10-16T10:27:10;0.90;;;0.90;;
39266;SDS011;24967;51.154;13.812;2022-10-16T10:29:46;1.65;;;0.90;;
39266;SDS011;24967;51.154;13.812;2022-10-16T10:32:25;0.65;;;0.60;;
39266;SDS011;24967;51.154;13.812;2022-10-16T10:35:01;0.60;;;0.60;;
39266;SDS011;24967;51.154;13.812;2022-10-16T10:37:42;0.90;;;0.90;;
39266;SDS011;24967;51.154;13.812;2022-10-16T10:40:28;2.30;;;1.10;;
39266;SDS011;24967;51.154;13.812;2022-10-16T10:43:04;0.65;;;0.65;;
39266;SDS011;24967;51.154;13.812;2022-10-16T10:45:42;0.80;;;0.80;;
39266;SDS011;24967;51.154;13.812;2022-10-16T10:48:17;1.50;;;0.90;;
39266;SDS011;24967;51.154;13.812;2022-10-16T10:50:54;0.75;;;0.75;;
39266;SDS011;24967;51.154;13.812;2022-10-16T10:53:39;1.20;;;0.70;;
39266;SDS011;24967;51.154;13.812;2022-10-16T10:56:18;0.73;;;0.60;;
39266;SDS011;24967;51.154;13.812;2022-10-16T10:59:07;2.80;;;0.70;;
39266;SDS011;24967;51.154;13.812;2022-10-16T11:01:48;0.55;;;0.52;;
39266;SDS011;24967;51.154;13.812;2022-10-16T11:04:29;1.00;;;0.52;;
39266;SDS011;24967;51.154;13.812;2022-10-16T11:07:09;0.63;;;0.60;;
39266;SDS011;24967;51.154;13.812;2022-10-16T11:09:43;0.55;;;0.50;;
39266;SDS011;24967;51.154;13.812;2022-10-16T11:12:14;0.50;;;0.50;;
39266;SDS011;24967;51.154;13.812;2022-10-16T11:14:46;0.98;;;0.30;;
39266;SDS011;24967;51.154;13.812;2022-10-16T11:17:22;0.40;;;0.40;;
39266;SDS011;24967;51.154;13.812;2022-10-16T11:22:22;0.90;;;0.40;;
39266;SDS011;24967;51.154;13.812;2022-10-16T11:24:55;0.68;;;0.43;;
39266;SDS011;24967;51.154;13.812;2022-10-16T11:27:31;1.48;;;0.40;;
39266;SDS011;24967;51.154;13.812;2022-10-16T11:30:03;0.30;;;0.30;;
39266;SDS011;24967;51.154;13.812;2022-10-16T11:32:47;1.35;;;0.60;;
39266;SDS011;24967;51.154;13.812;2022-10-16T11:35:22;1.20;;;0.47;;
39266;SDS011;24967;51.154;13.812;2022-10-16T11:37:51;0.80;;;0.47;;
39266;SDS011;24967;51.154;13.812;2022-10-16T11:40:24;2.13;;;0.43;;
39266;SDS011;24967;51.154;13.812;2022-10-16T11:42:56;0.40;;;0.40;;
39266;SDS011;24967;51.154;13.812;2022-10-16T11:45:32;0.57;;;0.32;;
39266;SDS011;24967;51.154;13.812;2022-10-16T11:48:05;0.45;;;0.45;;
39266;SDS011;24967;51.154;13.812;2022-10-16T11:50:39;1.50;;;0.57;;
39266;SDS011;24967;51.154;13.812;2022-10-16T11:53:13;0.90;;;0.30;;
39266;SDS011;24967;51.154;13.812;2022-10-16T11:55:46;1.30;;;0.50;;
39266;SDS011;24967;51.154;13.812;2022-10-16T11:58:15;0.90;;;0.43;;
39266;SDS011;24967;51.154;13.812;2022-10-16T12:00:51;1.38;;;0.40;;
39266;SDS011;24967;51.154;13.812;2022-10-16T12:03:26;1.17;;;0.40;;
39266;SDS011;24967;51.154;13.812;2022-10-16T12:06:15;0.63;;;0.40;;
39266;SDS011;24967;51.154;13.812;2022-10-16T12:08:52;2.30;;;0.40;;
39266;SDS011;24967;51.154;13.812;2022-10-16T12:11:32;0.30;;;0.30;;
39266;SDS011;24967;51.154;13.812;2022-10-16T12:14:05;0.82;;;0.40;;
39266;SDS011;24967;51.154;13.812;2022-10-16T12:16:53;0.60;;;0.50;;
39266;SDS011;24967;51.154;13.812;2022-10-16T12:19:21;1.27;;;0.47;;
39266;SDS011;24967;51.154;13.812;2022-10-16T12:21:49;1.27;;;0.50;;
39266;SDS011;24967;51.154;13.812;2022-10-16T12:24:24;0.40;;;0.40;;
39266;SDS011;24967;51.154;13.812;2022-10-16T12:26:59;1.92;;;0.50;;
39266;SDS011;24967;51.154;13.812;2022-10-16T12:29:31;1.02;;;0.40;;
39266;SDS011;24967;51.154;13.812;2022-10-16T12:32:00;0.60;;;0.38;;
39266;SDS011;24967;51.154;13.812;2022-10-16T12:34:28;0.47;;;0.40;;
39266;SDS011;24967;51.154;13.812;2022-10-16T12:37:10;1.10;;;0.50;;
39266;SDS011;24967;51.154;13.812;2022-10-16T12:39:40;0.98;;;0.40;;
39266;SDS011;24967;51.154;13.812;2022-10-16T12:42:20;0.50;;;0.50;;
39266;SDS011;24967;51.154;13.812;2022-10-16T12:44:50;4.13;;;0.50;;
39266;SDS011;24967;51.154;13.812;2022-10-16T12:47:20;0.68;;;0.43;;
39266;SDS011;24967;51.154;13.812;2022-10-16T12:49:49;1.55;;;0.50;;
39266;SDS011;24967;51.154;13.812;2022-10-16T12:52:25;0.30;;;0.30;;
39266;SDS011;24967;51.154;13.812;2022-10-16T12:54:55;0.50;;;0.50;;
39266;SDS011;24967;51.154;13.812;2022-10-16T12:57:38;0.65;;;0.43;;
39266;SDS011;24967;51.154;13.812;2022-10-16T13:00:25;1.45;;;0.60;;
39266;SDS011;24967;51.154;13.812;2022-10-16T13:06:11;0.45;;;0.45;;
39266;SDS011;24967;51.154;13.812;2022-10-16T13:08:52;0.77;;;0.40;;
39266;SDS011;24967;51.154;13.812;2022-10-16T13:11:33;0.85;;;0.73;;
39266;SDS011;24967;51.154;13.812;2022-10-16T13:14:16;0.40;;;0.40;;
39266;SDS011;24967;51.154;13.812;2022-10-16T13:16:56;0.52;;;0.52;;
39266;SDS011;24967;51.154;13.812;2022-10-16T13:19:35;1.85;;;0.40;;
39266;SDS011;24967;51.154;13.812;2022-10-16T13:22:12;0.50;;;0.50;;
39266;SDS011;24967;51.154;13.812;2022-10-16T13:24:48;0.50;;;0.50;;
39266;SDS011;24967;51.154;13.812;2022-10-16T13:27:29;1.52;;;0.47;;
39266;SDS011;24967;51.154;13.812;2022-10-16T13:30:11;0.60;;;0.60;;
39266;SDS011;24967;51.154;13.812;2022-10-16T13:32:40;1.83;;;0.30;;
39266;SDS011;24967;51.154;13.812;2022-10-16T13:35:20;1.52;;;0.40;;
39266;SDS011;24967;51.154;13.812;2022-10-16T13:37:49;0.55;;;0.50;;
39266;SDS011;24967;51.154;13.812;2022-10-16T13:40:20;2.28;;;0.50;;
39266;SDS011;24967;51.154;13.812;2022-10-16T13:42:48;0.50;;;0.45;;
39266;SDS011;24967;51.154;13.812;2022-10-16T13:45:20;0.75;;;0.47;;
39266;SDS011;24967;51.154;13.812;2022-10-16T13:47:48;0.65;;;0.65;;
39266;SDS011;24967;51.154;13.812;2022-10-16T13:50:16;0.40;;;0.40;;
39266;SDS011;24967;51.154;13.812;2022-10-16T13:52:44;0.47;;;0.47;;
39266;SDS011;24967;51.154;13.812;2022-10-16T13:55:11;0.50;;;0.50;;
39266;SDS011;24967;51.154;13.812;2022-10-16T13:57:39;0.45;;;0.45;;
39266;SDS011;24967;51.154;13.812;2022-10-16T14:00:17;0.50;;;0.50;;
39266;SDS011;24967;51.154;13.812;2022-10-16T14:02:50;0.40;;;0.40;;
39266;SDS011;24967;51.154;13.812;2022-10-16T14:05:21;0.57;;;0.45;;
39266;SDS011;24967;51.154;13.812;2022-10-16T14:07:48;0.60;;;0.60;;
39266;SDS011;24967;51.154;13.812;2022-10-16T14:10:19;0.43;;;0.43;;
39266;SDS011;24967;51.154;13.812;2022-10-16T14:12:54;0.40;;;0.40;;
39266;SDS011;24967;51.154;13.812;2022-10-16T14:15:23;0.90;;;0.70;;
39266;SDS011;24967;51.154;13.812;2022-10-16T14:17:50;1.40;;;0.60;;
39266;SDS011;24967;51.154;13.812;2022-10-16T14:20:19;2.00;;;0.82;;
39266;SDS011;24967;51.154;13.812;2022-10-16T14:22:57;3.30;;;0.60;;
39266;SDS011;24967;51.154;13.812;2022-10-16T14:25:26;1.00;;;0.50;;
39266;SDS011;24967;51.154;13.812;2022-10-16T14:27:58;0.40;;;0.40;;
39266;SDS011;24967;51.154;13.812;2022-10-16T14:30:28;0.77;;;0.60;;
39266;SDS011;24967;51.154;13.812;2022-10-16T14:32:57;1.67;;;0.50;;
39266;SDS011;24967;51.154;13.812;2022-10-16T14:35:25;0.65;;;0.65;;
39266;SDS011;24967;51.154;13.812;2022-10-16T14:37:54;0.88;;;0.60;;
39266;SDS011;24967;51.154;13.812;2022-10-16T14:40:23;0.50;;;0.50;;
39266;SDS011;24967;51.154;13.812;2022-10-16T14:42:51;0.40;;;0.40;;
39266;SDS011;24967;51.154;13.812;2022-10-16T14:45:19;1.50;;;0.60;;
39266;SDS011;24967;51.154;13.812;2022-10-16T14:47:50;0.75;;;0.63;;
39266;SDS011;24967;51.154;13.812;2022-10-16T14:50:18;0.55;;;0.40;;
39266;SDS011;24967;51.154;13.812;2022-10-16T14:52:45;0.77;;;0.60;;
39266;SDS011;24967;51.154;13.812;2022-10-16T14:55:11;0.63;;;0.60;;
39266;SDS011;24967;51.154;13.812;2022-10-16T14:57:38;0.57;;;0.57;;